Goliah — WDD5908 — position and weather

sailwx.info

Track history (hours):
 
Tides and Currents Weather Stations Pressure Air Temp Water Temp Dewpoint Dewpoint Depression Visibility Wind Speed Wind Dir Waves Ship Positions

Goliah

Owner: Crowley Marine Services, Seattle, WA. More information available from US FCC via Universal Licensing System and Coast Guard Vessel Documentation Center.

Last reported at 2017-Oct-18 16:00 UTC. Time now 2017-Oct-18 16:30 UTC.
Position N 37°48' W 122°24'.

Length 33 m; draft 4.8 m.

Type: Tug. MMSI: 366898250.

Date/timePositionNaut miles runAvg speedWind from/ knotsBaromVisibWave heightAir tempDewpointWater temp
2017-Oct-18 16:00N 37°48' W 122°24'0 0.0
2017-Oct-18 15:30N 37°48' W 122°24'0 0.0
2017-Oct-18 15:00N 37°48' W 122°24'0 0.0
2017-Oct-18 14:00N 37°48' W 122°24'0 0.0
2017-Oct-18 13:30N 37°48' W 122°24'0 0.0
2017-Oct-18 13:00N 37°48' W 122°24'0 0.0
2017-Oct-18 12:30N 37°48' W 122°24'0 0.0
2017-Oct-18 12:00N 37°48' W 122°24'0 0.0
2017-Oct-18 11:30N 37°48' W 122°24'0 0.0
2017-Oct-18 11:00N 37°48' W 122°24'0 0.0
2017-Oct-18 10:30N 37°48' W 122°24'0 0.0
2017-Oct-18 10:00N 37°48' W 122°24'0 0.0
2017-Oct-18 09:30N 37°48' W 122°24'0 0.0
2017-Oct-18 09:00N 37°48' W 122°24'0 0.9
2017-Oct-18 08:30N 37°49' W 122°24'510.1
2017-Oct-18 08:00N 37°54' W 122°25'2 4.0
2017-Oct-18 07:30N 37°56' W 122°25'0 0.1
2017-Oct-18 07:01N 37°56' W 122°25'1 2.7
2017-Oct-18 06:31N 37°54' W 122°25'1 1.6
2017-Oct-18 06:00N 37°55' W 122°25'0 0.9
2017-Oct-18 05:30N 37°55' W 122°25'0 0.0
2017-Oct-18 05:00N 37°55' W 122°25'0 0.0
2017-Oct-18 04:30N 37°55' W 122°25'0 0.0
2017-Oct-18 04:00N 37°55' W 122°25'0 0.0
2017-Oct-18 03:30N 37°55' W 122°25'0 0.0
2017-Oct-18 03:01N 37°55' W 122°25'0 0.0
2017-Oct-18 02:30N 37°55' W 122°25'0 0.0
2017-Oct-18 02:00N 37°55' W 122°25'0 0.0
2017-Oct-18 01:30N 37°55' W 122°25'0 0.0
2017-Oct-18 01:01N 37°55' W 122°25'0 0.0
2017-Oct-18 00:30N 37°55' W 122°25'0 0.0
2017-Oct-18 00:00N 37°55' W 122°25'0 0.0
2017-Oct-17 23:30N 37°55' W 122°25'0 0.0
2017-Oct-17 23:00N 37°55' W 122°25'0 0.0
2017-Oct-17 22:30N 37°55' W 122°25'0 0.0
2017-Oct-17 22:00N 37°55' W 122°25'0 0.0
2017-Oct-17 21:30N 37°55' W 122°25'0 0.0
2017-Oct-17 21:00N 37°55' W 122°25'0 0.0
2017-Oct-17 20:30N 37°55' W 122°25'0 0.0
2017-Oct-17 20:00N 37°55' W 122°25'0 0.0
2017-Oct-17 19:30N 37°55' W 122°25'0 0.0
2017-Oct-17 19:00N 37°55' W 122°25'0 0.0
2017-Oct-17 18:30N 37°55' W 122°25'0 0.0
2017-Oct-17 18:00N 37°55' W 122°25'1 1.2
2017-Oct-17 17:31N 37°55' W 122°25'0 0.9
2017-Oct-17 17:00N 37°55' W 122°25'0 0.3
2017-Oct-17 16:30N 37°55' W 122°25'4 8.3
2017-Oct-17 16:00N 37°51' W 122°24'4 7.7
2017-Oct-17 15:31N 37°48' W 122°21'0 0.1
2017-Oct-17 15:00N 37°48' W 122°21'0 0.0
2017-Oct-17 14:30N 37°48' W 122°21'0 0.0
2017-Oct-17 14:00N 37°48' W 122°21'0 0.1
2017-Oct-17 13:31N 37°48' W 122°21'1 1.7
2017-Oct-17 13:00N 37°49' W 122°20'0 0.9
2017-Oct-17 12:30N 37°49' W 122°20'2 3.4
2017-Oct-17 12:00N 37°48' W 122°22'2 3.4
2017-Oct-17 11:30N 37°49' W 122°20'0 0.0
2017-Oct-17 11:00N 37°49' W 122°20'0 0.0
2017-Oct-17 10:30N 37°49' W 122°20'0 0.0
2017-Oct-17 10:01N 37°49' W 122°20'0 0.8
2017-Oct-17 09:31N 37°48' W 122°20'1 2.2
2017-Oct-17 09:00N 37°48' W 122°19'0 0.9
2017-Oct-17 08:31N 37°48' W 122°20'3 6.5
2017-Oct-17 08:00N 37°48' W 122°24'0 0.0
2017-Oct-17 07:30N 37°48' W 122°24'0 0.0
2017-Oct-17 07:00N 37°48' W 122°24'0 0.0
2017-Oct-17 06:30N 37°48' W 122°24'0 0.0
2017-Oct-17 06:00N 37°48' W 122°24'0 0.0
2017-Oct-17 05:30N 37°48' W 122°24'0 0.0
2017-Oct-17 05:00N 37°48' W 122°24'0 0.0
2017-Oct-17 04:30N 37°48' W 122°24'0 0.0
2017-Oct-17 04:00N 37°48' W 122°24'0 0.0
2017-Oct-17 03:30N 37°48' W 122°24'0 0.0
2017-Oct-17 03:00N 37°48' W 122°24'0 0.0
2017-Oct-17 02:30N 37°48' W 122°24'0 0.0
2017-Oct-17 02:00N 37°48' W 122°24'0 0.0
2017-Oct-17 01:31N 37°48' W 122°24'0 0.0
2017-Oct-17 01:00N 37°48' W 122°24'0 0.0
2017-Oct-17 00:30N 37°48' W 122°24'0 0.0
2017-Oct-17 00:00N 37°48' W 122°24'0 0.0
2017-Oct-16 23:30N 37°48' W 122°24'0 0.0
2017-Oct-16 23:00N 37°48' W 122°24'0 0.0
2017-Oct-16 22:30N 37°48' W 122°24'0 0.0
2017-Oct-16 22:00N 37°48' W 122°24'0 0.0
2017-Oct-16 21:30N 37°48' W 122°24'0 0.0
2017-Oct-16 21:00N 37°48' W 122°24'0 0.0
2017-Oct-16 20:30N 37°48' W 122°24'4 8.3
2017-Oct-16 20:00N 37°52' W 122°25'3 6.2
2017-Oct-16 19:30N 37°55' W 122°25'0 0.3
2017-Oct-16 19:00N 37°55' W 122°25'2 4.3
2017-Oct-16 18:30N 37°54' W 122°22'1 1.3
2017-Oct-16 18:00N 37°55' W 122°22'0 0.1
2017-Oct-16 17:31N 37°55' W 122°22'0 0.3
2017-Oct-16 17:00N 37°55' W 122°22'0 0.0
2017-Oct-16 16:30N 37°55' W 122°22'0 0.2
2017-Oct-16 16:01N 37°55' W 122°22'3 5.4
2017-Oct-16 15:30N 37°54' W 122°25'510.0
2017-Oct-16 15:01N 37°50' W 122°22'3 2.7
2017-Oct-16 14:01N 37°48' W 122°19'1 2.8
2017-Oct-16 13:31N 37°48' W 122°17'1 1.5
2017-Oct-16 13:00N 37°48' W 122°18'1 1.7
2017-Oct-16 12:30N 37°48' W 122°19'3 6.2
2017-Oct-16 12:00N 37°48' W 122°23'0 1.0
2017-Oct-16 11:30N 37°48' W 122°24'0 0.0
2017-Oct-16 11:00N 37°48' W 122°24'0 0.0
2017-Oct-16 10:30N 37°48' W 122°24'0 0.0
2017-Oct-16 10:01N 37°48' W 122°24'0 0.0
2017-Oct-16 09:30N 37°48' W 122°24'0 0.0
2017-Oct-16 09:00N 37°48' W 122°24'0 0.0
2017-Oct-16 08:30N 37°48' W 122°24'0 0.0
2017-Oct-16 08:00N 37°48' W 122°24'0 0.0
2017-Oct-16 07:30N 37°48' W 122°24'1 1.6
2017-Oct-16 07:00N 37°49' W 122°24'5 9.1
2017-Oct-16 06:30N 37°53' W 122°25'5 9.6
2017-Oct-16 06:01N 37°58' W 122°26'4 8.6
2017-Oct-16 05:30N 38°01' W 122°22'4 8.3
2017-Oct-16 05:00N 38°03' W 122°18'4 7.7
2017-Oct-16 04:30N 38°04' W 122°13'4 7.8
2017-Oct-16 04:00N 38°02' W 122°08'2 1.1
2017-Oct-16 02:34N 38°03' W 122°06'1 4.6
2017-Oct-16 02:21N 38°02' W 122°07'2 3.2
2017-Oct-16 01:37N 38°02' W 122°10'1 5.8
2017-Oct-16 01:30N 38°03' W 122°11'3 6.3
2017-Oct-16 01:00N 38°04' W 122°15'3 6.4
2017-Oct-16 00:30N 38°03' W 122°19'3 6.6
2017-Oct-16 00:00N 38°02' W 122°22'4 8.1
2017-Oct-15 23:31N 37°58' W 122°26'4 8.4
2017-Oct-15 23:00N 37°54' W 122°25'4 8.7
2017-Oct-15 22:30N 37°50' W 122°24'2 3.7
2017-Oct-15 22:00N 37°48' W 122°24'0 0.0
2017-Oct-15 21:30N 37°48' W 122°24'0 0.0
2017-Oct-15 21:00N 37°48' W 122°24'0 0.0
2017-Oct-15 20:30N 37°48' W 122°24'0 0.0
2017-Oct-15 20:00N 37°48' W 122°24'0 0.0
2017-Oct-15 19:30N 37°48' W 122°24'0 0.0
2017-Oct-15 19:00N 37°48' W 122°24'0 0.0
2017-Oct-15 18:30N 37°48' W 122°24'0 0.0
2017-Oct-15 18:00N 37°48' W 122°24'0 0.0
2017-Oct-15 17:30N 37°48' W 122°24'0 0.0
2017-Oct-15 17:00N 37°48' W 122°24'0 0.0
2017-Oct-15 16:30N 37°48' W 122°24'0 0.0
2017-Oct-15 16:00N 37°48' W 122°24'0 0.0
2017-Oct-15 15:30N 37°48' W 122°24'0 0.0
2017-Oct-15 15:00N 37°48' W 122°24'0 0.0
2017-Oct-15 14:00N 37°48' W 122°24'2 3.8
2017-Oct-15 13:30N 37°48' W 122°21'1 1.9
2017-Oct-15 13:00N 37°49' W 122°20'0 0.8
2017-Oct-15 12:30N 37°49' W 122°20'1 2.5
2017-Oct-15 12:00N 37°48' W 122°21'1 1.8
2017-Oct-15 11:31N 37°48' W 122°20'0 0.0
2017-Oct-15 11:00N 37°48' W 122°20'0 0.1
2017-Oct-15 10:30N 37°48' W 122°20'0 0.0
2017-Oct-15 10:00N 37°48' W 122°20'0 0.3
2017-Oct-15 09:30N 37°48' W 122°20'0 0.4
2017-Oct-15 09:01N 37°49' W 122°20'0 0.4
2017-Oct-15 08:30N 37°49' W 122°20'0 0.0
2017-Oct-15 08:00N 37°49' W 122°20'0 0.0
2017-Oct-15 07:30N 37°49' W 122°20'0 0.0
2017-Oct-15 07:00N 37°49' W 122°20'0 0.0
2017-Oct-15 06:30N 37°49' W 122°20'0 0.0
2017-Oct-15 06:00N 37°49' W 122°20'0 0.0
2017-Oct-15 05:30N 37°49' W 122°20'0 0.0
2017-Oct-15 05:00N 37°49' W 122°20'1 2.3
2017-Oct-15 04:30N 37°49' W 122°21'5 9.7
2017-Oct-15 04:00N 37°53' W 122°25'3 5.6
2017-Oct-15 03:31N 37°55' W 122°22'0 0.1
2017-Oct-15 03:01N 37°55' W 122°22'1 1.7
2017-Oct-15 02:30N 37°54' W 122°23'2 4.1
2017-Oct-15 02:01N 37°55' W 122°25'4 8.0
2017-Oct-15 01:30N 37°51' W 122°26'4 7.7
2017-Oct-15 01:01N 37°48' W 122°30'0 0.6
2017-Oct-15 00:31N 37°48' W 122°30'0 0.3
2017-Oct-15 00:01N 37°48' W 122°30'3 6.2
2017-Oct-14 23:30N 37°49' W 122°26'2 3.6
2017-Oct-14 23:00N 37°48' W 122°24'0 0.0
2017-Oct-14 22:30N 37°48' W 122°24'0 0.0
2017-Oct-14 22:00N 37°48' W 122°24'0 0.0
2017-Oct-14 21:30N 37°48' W 122°24'0 0.0
2017-Oct-14 21:00N 37°48' W 122°24'0 0.0
2017-Oct-14 20:30N 37°48' W 122°24'0 0.0
2017-Oct-14 20:00N 37°48' W 122°24'0 0.0
2017-Oct-14 19:30N 37°48' W 122°24'0 0.0
2017-Oct-14 19:00N 37°48' W 122°24'0 0.0
2017-Oct-14 18:30N 37°48' W 122°24'0 0.0
2017-Oct-14 18:00N 37°48' W 122°24'0 0.0
2017-Oct-14 17:30N 37°48' W 122°24'0 0.0
2017-Oct-14 17:00N 37°48' W 122°24'0 0.0
2017-Oct-14 16:30N 37°48' W 122°24'0 0.0
2017-Oct-14 16:00N 37°48' W 122°24'0 0.0
2017-Oct-14 15:30N 37°48' W 122°24'1 1.1
2017-Oct-14 15:00N 37°49' W 122°24'1 2.1
2017-Oct-14 14:31N 37°49' W 122°26'0 0.8
2017-Oct-14 14:00N 37°49' W 122°25'1 2.6
2017-Oct-14 13:30N 37°48' W 122°24'0 0.0
2017-Oct-14 13:00N 37°48' W 122°24'0 0.0
2017-Oct-14 12:30N 37°48' W 122°24'0 0.0
2017-Oct-14 12:00N 37°48' W 122°24'0 0.0
2017-Oct-14 11:30N 37°48' W 122°24'0 0.0
2017-Oct-14 11:00N 37°48' W 122°24'0 0.0
2017-Oct-14 10:30N 37°48' W 122°24'0 0.0
2017-Oct-14 10:00N 37°48' W 122°24'0 0.0
2017-Oct-14 09:30N 37°48' W 122°24'0 0.0
2017-Oct-14 09:00N 37°48' W 122°24'0 0.0
2017-Oct-14 08:30N 37°48' W 122°24'0 0.0
2017-Oct-14 08:00N 37°48' W 122°24'0 0.0
2017-Oct-14 07:30N 37°48' W 122°24'0 0.0
2017-Oct-14 07:00N 37°48' W 122°24'0 0.0
2017-Oct-14 06:30N 37°48' W 122°24'0 0.0
2017-Oct-14 06:00N 37°48' W 122°24'0 0.0
2017-Oct-14 05:30N 37°48' W 122°24'0 0.0
2017-Oct-14 05:00N 37°48' W 122°24'0 0.0
2017-Oct-14 04:30N 37°48' W 122°24'0 0.6
2017-Oct-14 04:01N 37°48' W 122°24'4 7.3
2017-Oct-14 03:30N 37°48' W 122°19'0 0.0
2017-Oct-14 03:00N 37°48' W 122°19'0 0.7
2017-Oct-14 02:31N 37°48' W 122°19'1 2.1
2017-Oct-14 02:00N 37°48' W 122°17'2 3.5
2017-Oct-14 01:30N 37°48' W 122°19'2 4.2
2017-Oct-14 01:01N 37°48' W 122°22'3 5.7
2017-Oct-14 00:30N 37°49' W 122°25'5 9.2
2017-Oct-14 00:00N 37°49' W 122°31'1 1.2
2017-Oct-13 23:31N 37°49' W 122°31'4 9.0
2017-Oct-13 23:01N 37°51' W 122°26'4 8.6
2017-Oct-13 22:30N 37°55' W 122°25'5 9.3
2017-Oct-13 22:00N 37°60' W 122°25'510.7
2017-Oct-13 21:30N 38°03' W 122°20'510.5
2017-Oct-13 21:00N 38°04' W 122°13'4 8.8
2017-Oct-13 20:30N 38°02' W 122°08'0 0.5
2017-Oct-13 19:49N 38°02' W 122°08'0 0.0
2017-Oct-13 19:30N 38°02' W 122°08'0 0.2
2017-Oct-13 19:00N 38°02' W 122°08'1 0.3
2017-Oct-13 14:41N 38°02' W 122°09'0 0.1
2017-Oct-13 13:13N 38°02' W 122°09'0 1.3
2017-Oct-13 13:00N 38°02' W 122°09'2 4.0
2017-Oct-13 12:30N 38°03' W 122°11'4 8.8
2017-Oct-13 12:00N 38°03' W 122°17'611.0
2017-Oct-13 11:30N 38°01' W 122°23'511.0
2017-Oct-13 11:01N 37°56' W 122°26'1 1.3
2017-Oct-13 10:30N 37°56' W 122°25'0 0.2
2017-Oct-13 10:00N 37°56' W 122°25'0 0.0
2017-Oct-13 09:30N 37°56' W 122°25'0 0.0
2017-Oct-13 08:43N 37°56' W 122°25'0 0.0
2017-Oct-13 08:12N 37°56' W 122°25'0 0.0
2017-Oct-13 07:42N 37°56' W 122°25'0 0.0
2017-Oct-13 07:28N 37°56' W 122°25'0 0.0
2017-Oct-13 07:00N 37°56' W 122°25'0 0.0
2017-Oct-13 06:30N 37°56' W 122°25'0 0.0
2017-Oct-13 06:00N 37°56' W 122°25'0 0.0
2017-Oct-13 05:30N 37°56' W 122°25'0 0.0
2017-Oct-13 05:00N 37°56' W 122°25'0 0.0
2017-Oct-13 04:30N 37°56' W 122°25'0 0.0
2017-Oct-13 04:00N 37°56' W 122°25'0 0.0
2017-Oct-13 03:30N 37°56' W 122°25'0 0.0
2017-Oct-13 03:00N 37°56' W 122°25'0 0.0
2017-Oct-13 02:30N 37°56' W 122°25'0 0.0
2017-Oct-13 02:00N 37°56' W 122°25'0 0.0
2017-Oct-13 01:31N 37°56' W 122°25'0 0.0
2017-Oct-13 01:00N 37°56' W 122°25'0 0.3
2017-Oct-13 00:30N 37°56' W 122°25'2 4.1
2017-Oct-13 00:01N 37°54' W 122°23'1 2.3
2017-Oct-12 23:30N 37°55' W 122°22'0 0.0
2017-Oct-12 23:01N 37°55' W 122°22'1 1.5
2017-Oct-12 22:31N 37°54' W 122°22'3 5.8
2017-Oct-12 22:01N 37°52' W 122°24'4 8.5
2017-Oct-12 21:30N 37°48' W 122°24'0 0.0
2017-Oct-12 21:00N 37°48' W 122°24'0 0.0
2017-Oct-12 20:30N 37°48' W 122°24'0 0.0
2017-Oct-12 20:00N 37°48' W 122°24'0 0.0
2017-Oct-12 19:31N 37°48' W 122°24'0 0.0
2017-Oct-12 19:00N 37°48' W 122°24'0 0.0
2017-Oct-12 18:30N 37°48' W 122°24'0 0.0
2017-Oct-12 18:01N 37°48' W 122°24'2 4.3
2017-Oct-12 17:30N 37°49' W 122°26'4 8.0
2017-Oct-12 17:00N 37°49' W 122°32'2 3.4
2017-Oct-12 16:31N 37°49' W 122°29'5 9.2
2017-Oct-12 16:00N 37°49' W 122°24'510.9
2017-Oct-12 15:31N 37°44' W 122°21'2 3.1
2017-Oct-12 15:00N 37°43' W 122°20'5 9.9
2017-Oct-12 14:30N 37°47' W 122°23'1 2.4
2017-Oct-12 14:01N 37°48' W 122°24'0 0.0
2017-Oct-12 13:30N 37°48' W 122°24'0 0.0
2017-Oct-12 13:00N 37°48' W 122°24'3 5.8
2017-Oct-12 12:31N 37°46' W 122°22'2 3.1
2017-Oct-12 12:01N 37°45' W 122°20'5 9.5
2017-Oct-12 11:31N 37°49' W 122°23'5 9.2
2017-Oct-12 11:00N 37°53' W 122°25'2 4.1
2017-Oct-12 10:31N 37°55' W 122°25'0 0.1
2017-Oct-12 10:00N 37°55' W 122°25'1 1.3
2017-Oct-12 09:31N 37°55' W 122°24'1 1.8
2017-Oct-12 09:00N 37°54' W 122°23'0 0.0
2017-Oct-12 08:30N 37°54' W 122°23'0 0.0
2017-Oct-12 08:01N 37°54' W 122°23'0 0.0
2017-Oct-12 07:30N 37°54' W 122°23'0 0.0
2017-Oct-12 07:00N 37°54' W 122°23'0 0.0
2017-Oct-12 06:30N 37°54' W 122°23'0 0.0
2017-Oct-12 06:00N 37°54' W 122°23'1 2.9
2017-Oct-12 05:30N 37°55' W 122°25'510.2
2017-Oct-12 05:00N 38°00' W 122°24'611.2
2017-Oct-12 04:30N 38°03' W 122°18'8 5.2
2017-Oct-12 03:01N 38°02' W 122°08'0 0.0
2017-Oct-12 03:00N 38°02' W 122°08'1 1.2
2017-Oct-12 02:14N 38°02' W 122°09'1 1.0
2017-Oct-12 01:26N 38°02' W 122°08'1 0.0
2017-Oct-10 23:59N 38°02' W 122°07'0 0.2
2017-Oct-10 23:23N 38°02' W 122°08'1 3.2
2017-Oct-10 23:00N 38°02' W 122°09'4 8.8
2017-Oct-10 22:30N 38°04' W 122°14'5 9.5
2017-Oct-10 22:01N 38°03' W 122°20'4 8.2
2017-Oct-10 21:31N 38°01' W 122°24'611.4
2017-Oct-10 21:00N 37°55' W 122°27'510.5
2017-Oct-10 20:31N 37°51' W 122°24'4 7.8
2017-Oct-10 20:00N 37°47' W 122°22'3 5.1
2017-Oct-10 19:30N 37°45' W 122°20'3 7.0
2017-Oct-10 19:00N 37°48' W 122°23'1 1.6
2017-Oct-10 18:30N 37°48' W 122°24'0 0.0
2017-Oct-10 18:00N 37°48' W 122°24'1 3.0
2017-Oct-10 17:31N 37°49' W 122°26'3 5.0
2017-Oct-10 17:01N 37°49' W 122°29'3 6.0
2017-Oct-10 16:31N 37°49' W 122°25'1 2.1
2017-Oct-10 16:00N 37°48' W 122°24'0 0.0
2017-Oct-10 15:30N 37°48' W 122°24'0 0.0
2017-Oct-10 15:00N 37°48' W 122°24'0 0.0
2017-Oct-10 14:00N 37°48' W 122°24'0 0.0
2017-Oct-10 13:30N 37°48' W 122°24'0 0.0
2017-Oct-10 13:00N 37°48' W 122°24'0 0.0
2017-Oct-10 12:30N 37°48' W 122°24'0 0.0
2017-Oct-10 12:00N 37°48' W 122°24'0 0.0
2017-Oct-10 11:30N 37°48' W 122°24'0 0.0
2017-Oct-10 11:00N 37°48' W 122°24'0 0.0
2017-Oct-10 10:30N 37°48' W 122°24'0 0.0
2017-Oct-10 10:00N 37°48' W 122°24'0 0.0
2017-Oct-10 09:30N 37°48' W 122°24'0 0.0
2017-Oct-10 09:00N 37°48' W 122°24'0 0.0
2017-Oct-10 08:30N 37°48' W 122°24'0 0.0
2017-Oct-10 08:00N 37°48' W 122°24'0 0.0
2017-Oct-10 07:30N 37°48' W 122°24'3 6.1
2017-Oct-10 07:01N 37°48' W 122°20'1 2.4
2017-Oct-10 06:30N 37°48' W 122°19'1 1.7
2017-Oct-10 06:00N 37°48' W 122°17'0 0.9
2017-Oct-10 05:31N 37°48' W 122°18'2 4.4
2017-Oct-10 05:00N 37°48' W 122°21'2 4.8
2017-Oct-10 04:30N 37°48' W 122°24'0 0.4
2017-Oct-10 04:00N 37°48' W 122°24'2 4.3
2017-Oct-10 03:30N 37°50' W 122°24'611.0
2017-Oct-10 03:00N 37°56' W 122°25'611.3
2017-Oct-10 02:29N 38°01' W 122°23'611.4
2017-Oct-10 02:00N 38°03' W 122°16'6 2.6
2017-Oct-09 23:44N 38°02' W 122°09'1 0.5
2017-Oct-09 22:13N 38°02' W 122°08'1 3.9
2017-Oct-09 22:00N 38°02' W 122°09'3 4.9
2017-Oct-09 21:29N 38°03' W 122°12'4 8.8
2017-Oct-09 21:00N 38°03' W 122°17'5 9.7
2017-Oct-09 20:30N 38°01' W 122°23'611.8
2017-Oct-09 20:00N 37°56' W 122°25'2 5.0
2017-Oct-09 19:30N 37°55' W 122°22'0 0.6
2017-Oct-09 18:51N 37°55' W 122°22'1 2.4
2017-Oct-09 18:30N 37°54' W 122°22'3 5.4
2017-Oct-09 18:00N 37°55' W 122°25'3 6.5
2017-Oct-09 17:30N 37°52' W 122°24'4 5.5
2017-Oct-09 16:52N 37°48' W 122°24'0 0.0
2017-Oct-09 16:28N 37°48' W 122°24'0 0.0
2017-Oct-09 15:58N 37°48' W 122°24'0 0.0
2017-Oct-09 15:28N 37°48' W 122°24'0 0.0
2017-Oct-09 14:58N 37°48' W 122°24'0 0.0
2017-Oct-09 14:28N 37°48' W 122°24'0 0.0
2017-Oct-09 13:53N 37°48' W 122°24'0 0.8
2017-Oct-09 13:31N 37°48' W 122°24'2 3.3
2017-Oct-09 12:58N 37°49' W 122°26'2 3.7
2017-Oct-09 12:28N 37°48' W 122°24'0 0.0
2017-Oct-09 11:58N 37°48' W 122°24'0 0.0
2017-Oct-09 11:28N 37°48' W 122°24'0 0.0
2017-Oct-09 10:58N 37°48' W 122°24'0 0.0
2017-Oct-09 10:28N 37°48' W 122°24'0 0.0
2017-Oct-09 09:58N 37°48' W 122°24'0 0.0
2017-Oct-09 09:28N 37°48' W 122°24'0 0.0
2017-Oct-09 08:58N 37°48' W 122°24'0 0.0
2017-Oct-09 08:28N 37°48' W 122°24'0 0.0
2017-Oct-09 07:58N 37°48' W 122°24'0 0.0
2017-Oct-09 07:28N 37°48' W 122°24'0 0.0
2017-Oct-09 06:58N 37°48' W 122°24'0 0.0
2017-Oct-09 06:28N 37°48' W 122°24'0 0.0
2017-Oct-09 05:58N 37°48' W 122°24'0 0.0
2017-Oct-09 05:28N 37°48' W 122°24'0 0.0
2017-Oct-09 04:55N 37°48' W 122°24'0 0.0
2017-Oct-09 04:25N 37°48' W 122°24'0 0.0
2017-Oct-09 03:58N 37°48' W 122°24'0 0.0
2017-Oct-09 03:22N 37°48' W 122°24'0 0.0
2017-Oct-09 02:58N 37°48' W 122°24'0 0.0
2017-Oct-09 02:28N 37°48' W 122°24'0 0.0
2017-Oct-09 01:58N 37°48' W 122°24'0 0.0
2017-Oct-09 01:28N 37°48' W 122°24'0 0.0
2017-Oct-09 00:58N 37°48' W 122°24'0 0.1
2017-Oct-09 00:31N 37°48' W 122°24'3 5.3
2017-Oct-08 23:59N 37°48' W 122°20'0 0.6
2017-Oct-08 23:30N 37°49' W 122°20'1 1.6
2017-Oct-08 23:00N 37°48' W 122°21'1 1.5
2017-Oct-08 22:31N 37°48' W 122°22'1 2.5
2017-Oct-08 22:01N 37°48' W 122°20'0 0.4
2017-Oct-08 21:28N 37°48' W 122°21'1 1.4
2017-Oct-08 21:00N 37°48' W 122°21'2 3.8
2017-Oct-08 20:30N 37°48' W 122°24'0 0.0
2017-Oct-08 20:00N 37°48' W 122°24'0 0.0
2017-Oct-08 19:30N 37°48' W 122°24'0 0.0
2017-Oct-08 19:00N 37°48' W 122°24'0 0.0
2017-Oct-08 18:30N 37°48' W 122°24'0 0.0
2017-Oct-08 18:00N 37°48' W 122°24'0 0.0
2017-Oct-08 17:30N 37°48' W 122°24'0 0.0
2017-Oct-08 17:00N 37°48' W 122°24'0 0.0
2017-Oct-08 16:30N 37°48' W 122°24'  
Track history (hours):
 
Tides and Currents Weather Stations Pressure Air Temp Water Temp Dewpoint Dewpoint Depression Visibility Wind Speed Wind Dir Waves Ship Positions

Goliah

Owner: Crowley Marine Services, Seattle, WA. More information available from US FCC via Universal Licensing System and Coast Guard Vessel Documentation Center.

Last reported at 2017-Oct-18 16:00 UTC. Time now 2017-Oct-18 16:30 UTC.
Position N 37°48' W 122°24'.

Length 33 m; draft 4.8 m.

Type: Tug. MMSI: 366898250.

Date/timePositionNaut miles runAvg speedWind from/ knotsBaromVisibWave heightAir tempDewpointWater temp
2017-Oct-18 16:00N 37°48' W 122°24'0 0.0
2017-Oct-18 15:30N 37°48' W 122°24'0 0.0
2017-Oct-18 15:00N 37°48' W 122°24'0 0.0
2017-Oct-18 14:00N 37°48' W 122°24'0 0.0
2017-Oct-18 13:30N 37°48' W 122°24'0 0.0
2017-Oct-18 13:00N 37°48' W 122°24'0 0.0
2017-Oct-18 12:30N 37°48' W 122°24'0 0.0
2017-Oct-18 12:00N 37°48' W 122°24'0 0.0
2017-Oct-18 11:30N 37°48' W 122°24'0 0.0
2017-Oct-18 11:00N 37°48' W 122°24'0 0.0
2017-Oct-18 10:30N 37°48' W 122°24'0 0.0
2017-Oct-18 10:00N 37°48' W 122°24'0 0.0
2017-Oct-18 09:30N 37°48' W 122°24'0 0.0
2017-Oct-18 09:00N 37°48' W 122°24'0 0.9
2017-Oct-18 08:30N 37°49' W 122°24'510.1
2017-Oct-18 08:00N 37°54' W 122°25'2 4.0
2017-Oct-18 07:30N 37°56' W 122°25'0 0.1
2017-Oct-18 07:01N 37°56' W 122°25'1 2.7
2017-Oct-18 06:31N 37°54' W 122°25'1 1.6
2017-Oct-18 06:00N 37°55' W 122°25'0 0.9
2017-Oct-18 05:30N 37°55' W 122°25'0 0.0
2017-Oct-18 05:00N 37°55' W 122°25'0 0.0
2017-Oct-18 04:30N 37°55' W 122°25'0 0.0
2017-Oct-18 04:00N 37°55' W 122°25'0 0.0
2017-Oct-18 03:30N 37°55' W 122°25'0 0.0
2017-Oct-18 03:01N 37°55' W 122°25'0 0.0
2017-Oct-18 02:30N 37°55' W 122°25'0 0.0
2017-Oct-18 02:00N 37°55' W 122°25'0 0.0
2017-Oct-18 01:30N 37°55' W 122°25'0 0.0
2017-Oct-18 01:01N 37°55' W 122°25'0 0.0
2017-Oct-18 00:30N 37°55' W 122°25'0 0.0
2017-Oct-18 00:00N 37°55' W 122°25'0 0.0
2017-Oct-17 23:30N 37°55' W 122°25'0 0.0
2017-Oct-17 23:00N 37°55' W 122°25'0 0.0
2017-Oct-17 22:30N 37°55' W 122°25'0 0.0
2017-Oct-17 22:00N 37°55' W 122°25'0 0.0
2017-Oct-17 21:30N 37°55' W 122°25'0 0.0
2017-Oct-17 21:00N 37°55' W 122°25'0 0.0
2017-Oct-17 20:30N 37°55' W 122°25'0 0.0
2017-Oct-17 20:00N 37°55' W 122°25'0 0.0
2017-Oct-17 19:30N 37°55' W 122°25'0 0.0
2017-Oct-17 19:00N 37°55' W 122°25'0 0.0
2017-Oct-17 18:30N 37°55' W 122°25'0 0.0
2017-Oct-17 18:00N 37°55' W 122°25'1 1.2
2017-Oct-17 17:31N 37°55' W 122°25'0 0.9
2017-Oct-17 17:00N 37°55' W 122°25'0 0.3
2017-Oct-17 16:30N 37°55' W 122°25'4 8.3
2017-Oct-17 16:00N 37°51' W 122°24'4 7.7
2017-Oct-17 15:31N 37°48' W 122°21'0 0.1
2017-Oct-17 15:00N 37°48' W 122°21'0 0.0
2017-Oct-17 14:30N 37°48' W 122°21'0 0.0
2017-Oct-17 14:00N 37°48' W 122°21'0 0.1
2017-Oct-17 13:31N 37°48' W 122°21'1 1.7
2017-Oct-17 13:00N 37°49' W 122°20'0 0.9
2017-Oct-17 12:30N 37°49' W 122°20'2 3.4
2017-Oct-17 12:00N 37°48' W 122°22'2 3.4
2017-Oct-17 11:30N 37°49' W 122°20'0 0.0
2017-Oct-17 11:00N 37°49' W 122°20'0 0.0
2017-Oct-17 10:30N 37°49' W 122°20'0 0.0
2017-Oct-17 10:01N 37°49' W 122°20'0 0.8
2017-Oct-17 09:31N 37°48' W 122°20'1 2.2
2017-Oct-17 09:00N 37°48' W 122°19'0 0.9
2017-Oct-17 08:31N 37°48' W 122°20'3 6.5
2017-Oct-17 08:00N 37°48' W 122°24'0 0.0
2017-Oct-17 07:30N 37°48' W 122°24'0 0.0
2017-Oct-17 07:00N 37°48' W 122°24'0 0.0
2017-Oct-17 06:30N 37°48' W 122°24'0 0.0
2017-Oct-17 06:00N 37°48' W 122°24'0 0.0
2017-Oct-17 05:30N 37°48' W 122°24'0 0.0
2017-Oct-17 05:00N 37°48' W 122°24'0 0.0
2017-Oct-17 04:30N 37°48' W 122°24'0 0.0
2017-Oct-17 04:00N 37°48' W 122°24'0 0.0
2017-Oct-17 03:30N 37°48' W 122°24'0 0.0
2017-Oct-17 03:00N 37°48' W 122°24'0 0.0
2017-Oct-17 02:30N 37°48' W 122°24'0 0.0
2017-Oct-17 02:00N 37°48' W 122°24'0 0.0
2017-Oct-17 01:31N 37°48' W 122°24'0 0.0
2017-Oct-17 01:00N 37°48' W 122°24'0 0.0
2017-Oct-17 00:30N 37°48' W 122°24'0 0.0
2017-Oct-17 00:00N 37°48' W 122°24'0 0.0
2017-Oct-16 23:30N 37°48' W 122°24'0 0.0
2017-Oct-16 23:00N 37°48' W 122°24'0 0.0
2017-Oct-16 22:30N 37°48' W 122°24'0 0.0
2017-Oct-16 22:00N 37°48' W 122°24'0 0.0
2017-Oct-16 21:30N 37°48' W 122°24'0 0.0
2017-Oct-16 21:00N 37°48' W 122°24'0 0.0
2017-Oct-16 20:30N 37°48' W 122°24'4 8.3
2017-Oct-16 20:00N 37°52' W 122°25'3 6.2
2017-Oct-16 19:30N 37°55' W 122°25'0 0.3
2017-Oct-16 19:00N 37°55' W 122°25'2 4.3
2017-Oct-16 18:30N 37°54' W 122°22'1 1.3
2017-Oct-16 18:00N 37°55' W 122°22'0 0.1
2017-Oct-16 17:31N 37°55' W 122°22'0 0.3
2017-Oct-16 17:00N 37°55' W 122°22'0 0.0
2017-Oct-16 16:30N 37°55' W 122°22'0 0.2
2017-Oct-16 16:01N 37°55' W 122°22'3 5.4
2017-Oct-16 15:30N 37°54' W 122°25'510.0
2017-Oct-16 15:01N 37°50' W 122°22'3 2.7
2017-Oct-16 14:01N 37°48' W 122°19'1 2.8
2017-Oct-16 13:31N 37°48' W 122°17'1 1.5
2017-Oct-16 13:00N 37°48' W 122°18'1 1.7
2017-Oct-16 12:30N 37°48' W 122°19'3 6.2
2017-Oct-16 12:00N 37°48' W 122°23'0 1.0
2017-Oct-16 11:30N 37°48' W 122°24'0 0.0
2017-Oct-16 11:00N 37°48' W 122°24'0 0.0
2017-Oct-16 10:30N 37°48' W 122°24'0 0.0
2017-Oct-16 10:01N 37°48' W 122°24'0 0.0
2017-Oct-16 09:30N 37°48' W 122°24'0 0.0
2017-Oct-16 09:00N 37°48' W 122°24'0 0.0
2017-Oct-16 08:30N 37°48' W 122°24'0 0.0
2017-Oct-16 08:00N 37°48' W 122°24'0 0.0
2017-Oct-16 07:30N 37°48' W 122°24'1 1.6
2017-Oct-16 07:00N 37°49' W 122°24'5 9.1
2017-Oct-16 06:30N 37°53' W 122°25'5 9.6
2017-Oct-16 06:01N 37°58' W 122°26'4 8.6
2017-Oct-16 05:30N 38°01' W 122°22'4 8.3
2017-Oct-16 05:00N 38°03' W 122°18'4 7.7
2017-Oct-16 04:30N 38°04' W 122°13'4 7.8
2017-Oct-16 04:00N 38°02' W 122°08'2 1.1
2017-Oct-16 02:34N 38°03' W 122°06'1 4.6
2017-Oct-16 02:21N 38°02' W 122°07'2 3.2
2017-Oct-16 01:37N 38°02' W 122°10'1 5.8
2017-Oct-16 01:30N 38°03' W 122°11'3 6.3
2017-Oct-16 01:00N 38°04' W 122°15'3 6.4
2017-Oct-16 00:30N 38°03' W 122°19'3 6.6
2017-Oct-16 00:00N 38°02' W 122°22'4 8.1
2017-Oct-15 23:31N 37°58' W 122°26'4 8.4
2017-Oct-15 23:00N 37°54' W 122°25'4 8.7
2017-Oct-15 22:30N 37°50' W 122°24'2 3.7
2017-Oct-15 22:00N 37°48' W 122°24'0 0.0
2017-Oct-15 21:30N 37°48' W 122°24'0 0.0
2017-Oct-15 21:00N 37°48' W 122°24'0 0.0
2017-Oct-15 20:30N 37°48' W 122°24'0 0.0
2017-Oct-15 20:00N 37°48' W 122°24'0 0.0
2017-Oct-15 19:30N 37°48' W 122°24'0 0.0
2017-Oct-15 19:00N 37°48' W 122°24'0 0.0
2017-Oct-15 18:30N 37°48' W 122°24'0 0.0
2017-Oct-15 18:00N 37°48' W 122°24'0 0.0
2017-Oct-15 17:30N 37°48' W 122°24'0 0.0
2017-Oct-15 17:00N 37°48' W 122°24'0 0.0
2017-Oct-15 16:30N 37°48' W 122°24'0 0.0
2017-Oct-15 16:00N 37°48' W 122°24'0 0.0
2017-Oct-15 15:30N 37°48' W 122°24'0 0.0
2017-Oct-15 15:00N 37°48' W 122°24'0 0.0
2017-Oct-15 14:00N 37°48' W 122°24'2 3.8
2017-Oct-15 13:30N 37°48' W 122°21'1 1.9
2017-Oct-15 13:00N 37°49' W 122°20'0 0.8
2017-Oct-15 12:30N 37°49' W 122°20'1 2.5
2017-Oct-15 12:00N 37°48' W 122°21'1 1.8
2017-Oct-15 11:31N 37°48' W 122°20'0 0.0
2017-Oct-15 11:00N 37°48' W 122°20'0 0.1
2017-Oct-15 10:30N 37°48' W 122°20'0 0.0
2017-Oct-15 10:00N 37°48' W 122°20'0 0.3
2017-Oct-15 09:30N 37°48' W 122°20'0 0.4
2017-Oct-15 09:01N 37°49' W 122°20'0 0.4
2017-Oct-15 08:30N 37°49' W 122°20'0 0.0
2017-Oct-15 08:00N 37°49' W 122°20'0 0.0
2017-Oct-15 07:30N 37°49' W 122°20'0 0.0
2017-Oct-15 07:00N 37°49' W 122°20'0 0.0
2017-Oct-15 06:30N 37°49' W 122°20'0 0.0
2017-Oct-15 06:00N 37°49' W 122°20'0 0.0
2017-Oct-15 05:30N 37°49' W 122°20'0 0.0
2017-Oct-15 05:00N 37°49' W 122°20'1 2.3
2017-Oct-15 04:30N 37°49' W 122°21'5 9.7
2017-Oct-15 04:00N 37°53' W 122°25'3 5.6
2017-Oct-15 03:31N 37°55' W 122°22'0 0.1
2017-Oct-15 03:01N 37°55' W 122°22'1 1.7
2017-Oct-15 02:30N 37°54' W 122°23'2 4.1
2017-Oct-15 02:01N 37°55' W 122°25'4 8.0
2017-Oct-15 01:30N 37°51' W 122°26'4 7.7
2017-Oct-15 01:01N 37°48' W 122°30'0 0.6
2017-Oct-15 00:31N 37°48' W 122°30'0 0.3
2017-Oct-15 00:01N 37°48' W 122°30'3 6.2
2017-Oct-14 23:30N 37°49' W 122°26'2 3.6
2017-Oct-14 23:00N 37°48' W 122°24'0 0.0
2017-Oct-14 22:30N 37°48' W 122°24'0 0.0
2017-Oct-14 22:00N 37°48' W 122°24'0 0.0
2017-Oct-14 21:30N 37°48' W 122°24'0 0.0
2017-Oct-14 21:00N 37°48' W 122°24'0 0.0
2017-Oct-14 20:30N 37°48' W 122°24'0 0.0
2017-Oct-14 20:00N 37°48' W 122°24'0 0.0
2017-Oct-14 19:30N 37°48' W 122°24'0 0.0
2017-Oct-14 19:00N 37°48' W 122°24'0 0.0
2017-Oct-14 18:30N 37°48' W 122°24'0 0.0
2017-Oct-14 18:00N 37°48' W 122°24'0 0.0
2017-Oct-14 17:30N 37°48' W 122°24'0 0.0
2017-Oct-14 17:00N 37°48' W 122°24'0 0.0
2017-Oct-14 16:30N 37°48' W 122°24'0 0.0
2017-Oct-14 16:00N 37°48' W 122°24'0 0.0
2017-Oct-14 15:30N 37°48' W 122°24'1 1.1
2017-Oct-14 15:00N 37°49' W 122°24'1 2.1
2017-Oct-14 14:31N 37°49' W 122°26'0 0.8
2017-Oct-14 14:00N 37°49' W 122°25'1 2.6
2017-Oct-14 13:30N 37°48' W 122°24'0 0.0
2017-Oct-14 13:00N 37°48' W 122°24'0 0.0
2017-Oct-14 12:30N 37°48' W 122°24'0 0.0
2017-Oct-14 12:00N 37°48' W 122°24'0 0.0
2017-Oct-14 11:30N 37°48' W 122°24'0 0.0
2017-Oct-14 11:00N 37°48' W 122°24'0 0.0
2017-Oct-14 10:30N 37°48' W 122°24'0 0.0
2017-Oct-14 10:00N 37°48' W 122°24'0 0.0
2017-Oct-14 09:30N 37°48' W 122°24'0 0.0
2017-Oct-14 09:00N 37°48' W 122°24'0 0.0
2017-Oct-14 08:30N 37°48' W 122°24'0 0.0
2017-Oct-14 08:00N 37°48' W 122°24'0 0.0
2017-Oct-14 07:30N 37°48' W 122°24'0 0.0
2017-Oct-14 07:00N 37°48' W 122°24'0 0.0
2017-Oct-14 06:30N 37°48' W 122°24'0 0.0
2017-Oct-14 06:00N 37°48' W 122°24'0 0.0
2017-Oct-14 05:30N 37°48' W 122°24'0 0.0
2017-Oct-14 05:00N 37°48' W 122°24'0 0.0
2017-Oct-14 04:30N 37°48' W 122°24'0 0.6
2017-Oct-14 04:01N 37°48' W 122°24'4 7.3
2017-Oct-14 03:30N 37°48' W 122°19'0 0.0
2017-Oct-14 03:00N 37°48' W 122°19'0 0.7
2017-Oct-14 02:31N 37°48' W 122°19'1 2.1
2017-Oct-14 02:00N 37°48' W 122°17'2 3.5
2017-Oct-14 01:30N 37°48' W 122°19'2 4.2
2017-Oct-14 01:01N 37°48' W 122°22'3 5.7
2017-Oct-14 00:30N 37°49' W 122°25'5 9.2
2017-Oct-14 00:00N 37°49' W 122°31'1 1.2
2017-Oct-13 23:31N 37°49' W 122°31'4 9.0
2017-Oct-13 23:01N 37°51' W 122°26'4 8.6
2017-Oct-13 22:30N 37°55' W 122°25'5 9.3
2017-Oct-13 22:00N 37°60' W 122°25'510.7
2017-Oct-13 21:30N 38°03' W 122°20'510.5
2017-Oct-13 21:00N 38°04' W 122°13'4 8.8
2017-Oct-13 20:30N 38°02' W 122°08'0 0.5
2017-Oct-13 19:49N 38°02' W 122°08'0 0.0
2017-Oct-13 19:30N 38°02' W 122°08'0 0.2
2017-Oct-13 19:00N 38°02' W 122°08'1 0.3
2017-Oct-13 14:41N 38°02' W 122°09'0 0.1
2017-Oct-13 13:13N 38°02' W 122°09'0 1.3
2017-Oct-13 13:00N 38°02' W 122°09'2 4.0
2017-Oct-13 12:30N 38°03' W 122°11'4 8.8
2017-Oct-13 12:00N 38°03' W 122°17'611.0
2017-Oct-13 11:30N 38°01' W 122°23'511.0
2017-Oct-13 11:01N 37°56' W 122°26'1 1.3
2017-Oct-13 10:30N 37°56' W 122°25'0 0.2
2017-Oct-13 10:00N 37°56' W 122°25'0 0.0
2017-Oct-13 09:30N 37°56' W 122°25'0 0.0
2017-Oct-13 08:43N 37°56' W 122°25'0 0.0
2017-Oct-13 08:12N 37°56' W 122°25'0 0.0
2017-Oct-13 07:42N 37°56' W 122°25'0 0.0
2017-Oct-13 07:28N 37°56' W 122°25'0 0.0
2017-Oct-13 07:00N 37°56' W 122°25'0 0.0
2017-Oct-13 06:30N 37°56' W 122°25'0 0.0
2017-Oct-13 06:00N 37°56' W 122°25'0 0.0
2017-Oct-13 05:30N 37°56' W 122°25'0 0.0
2017-Oct-13 05:00N 37°56' W 122°25'0 0.0
2017-Oct-13 04:30N 37°56' W 122°25'0 0.0
2017-Oct-13 04:00N 37°56' W 122°25'0 0.0
2017-Oct-13 03:30N 37°56' W 122°25'0 0.0
2017-Oct-13 03:00N 37°56' W 122°25'0 0.0
2017-Oct-13 02:30N 37°56' W 122°25'0 0.0
2017-Oct-13 02:00N 37°56' W 122°25'0 0.0
2017-Oct-13 01:31N 37°56' W 122°25'0 0.0
2017-Oct-13 01:00N 37°56' W 122°25'0 0.3
2017-Oct-13 00:30N 37°56' W 122°25'2 4.1
2017-Oct-13 00:01N 37°54' W 122°23'1 2.3
2017-Oct-12 23:30N 37°55' W 122°22'0 0.0
2017-Oct-12 23:01N 37°55' W 122°22'1 1.5
2017-Oct-12 22:31N 37°54' W 122°22'3 5.8
2017-Oct-12 22:01N 37°52' W 122°24'4 8.5
2017-Oct-12 21:30N 37°48' W 122°24'0 0.0
2017-Oct-12 21:00N 37°48' W 122°24'0 0.0
2017-Oct-12 20:30N 37°48' W 122°24'0 0.0
2017-Oct-12 20:00N 37°48' W 122°24'0 0.0
2017-Oct-12 19:31N 37°48' W 122°24'0 0.0
2017-Oct-12 19:00N 37°48' W 122°24'0 0.0
2017-Oct-12 18:30N 37°48' W 122°24'0 0.0
2017-Oct-12 18:01N 37°48' W 122°24'2 4.3
2017-Oct-12 17:30N 37°49' W 122°26'4 8.0
2017-Oct-12 17:00N 37°49' W 122°32'2 3.4
2017-Oct-12 16:31N 37°49' W 122°29'5 9.2
2017-Oct-12 16:00N 37°49' W 122°24'510.9
2017-Oct-12 15:31N 37°44' W 122°21'2 3.1
2017-Oct-12 15:00N 37°43' W 122°20'5 9.9
2017-Oct-12 14:30N 37°47' W 122°23'1 2.4
2017-Oct-12 14:01N 37°48' W 122°24'0 0.0
2017-Oct-12 13:30N 37°48' W 122°24'0 0.0
2017-Oct-12 13:00N 37°48' W 122°24'3 5.8
2017-Oct-12 12:31N 37°46' W 122°22'2 3.1
2017-Oct-12 12:01N 37°45' W 122°20'5 9.5
2017-Oct-12 11:31N 37°49' W 122°23'5 9.2
2017-Oct-12 11:00N 37°53' W 122°25'2 4.1
2017-Oct-12 10:31N 37°55' W 122°25'0 0.1
2017-Oct-12 10:00N 37°55' W 122°25'1 1.3
2017-Oct-12 09:31N 37°55' W 122°24'1 1.8
2017-Oct-12 09:00N 37°54' W 122°23'0 0.0
2017-Oct-12 08:30N 37°54' W 122°23'0 0.0
2017-Oct-12 08:01N 37°54' W 122°23'0 0.0
2017-Oct-12 07:30N 37°54' W 122°23'0 0.0
2017-Oct-12 07:00N 37°54' W 122°23'0 0.0
2017-Oct-12 06:30N 37°54' W 122°23'0 0.0
2017-Oct-12 06:00N 37°54' W 122°23'1 2.9
2017-Oct-12 05:30N 37°55' W 122°25'510.2
2017-Oct-12 05:00N 38°00' W 122°24'611.2
2017-Oct-12 04:30N 38°03' W 122°18'8 5.2
2017-Oct-12 03:01N 38°02' W 122°08'0 0.0
2017-Oct-12 03:00N 38°02' W 122°08'1 1.2
2017-Oct-12 02:14N 38°02' W 122°09'1 1.0
2017-Oct-12 01:26N 38°02' W 122°08'1 0.0
2017-Oct-10 23:59N 38°02' W 122°07'0 0.2
2017-Oct-10 23:23N 38°02' W 122°08'1 3.2
2017-Oct-10 23:00N 38°02' W 122°09'4 8.8
2017-Oct-10 22:30N 38°04' W 122°14'5 9.5
2017-Oct-10 22:01N 38°03' W 122°20'4 8.2
2017-Oct-10 21:31N 38°01' W 122°24'611.4
2017-Oct-10 21:00N 37°55' W 122°27'510.5
2017-Oct-10 20:31N 37°51' W 122°24'4 7.8
2017-Oct-10 20:00N 37°47' W 122°22'3 5.1
2017-Oct-10 19:30N 37°45' W 122°20'3 7.0
2017-Oct-10 19:00N 37°48' W 122°23'1 1.6
2017-Oct-10 18:30N 37°48' W 122°24'0 0.0
2017-Oct-10 18:00N 37°48' W 122°24'1 3.0
2017-Oct-10 17:31N 37°49' W 122°26'3 5.0
2017-Oct-10 17:01N 37°49' W 122°29'3 6.0
2017-Oct-10 16:31N 37°49' W 122°25'1 2.1
2017-Oct-10 16:00N 37°48' W 122°24'0 0.0
2017-Oct-10 15:30N 37°48' W 122°24'0 0.0
2017-Oct-10 15:00N 37°48' W 122°24'0 0.0
2017-Oct-10 14:00N 37°48' W 122°24'0 0.0
2017-Oct-10 13:30N 37°48' W 122°24'0 0.0
2017-Oct-10 13:00N 37°48' W 122°24'0 0.0
2017-Oct-10 12:30N 37°48' W 122°24'0 0.0
2017-Oct-10 12:00N 37°48' W 122°24'0 0.0
2017-Oct-10 11:30N 37°48' W 122°24'0 0.0
2017-Oct-10 11:00N 37°48' W 122°24'0 0.0
2017-Oct-10 10:30N 37°48' W 122°24'0 0.0
2017-Oct-10 10:00N 37°48' W 122°24'0 0.0
2017-Oct-10 09:30N 37°48' W 122°24'0 0.0
2017-Oct-10 09:00N 37°48' W 122°24'0 0.0
2017-Oct-10 08:30N 37°48' W 122°24'0 0.0
2017-Oct-10 08:00N 37°48' W 122°24'0 0.0
2017-Oct-10 07:30N 37°48' W 122°24'3 6.1
2017-Oct-10 07:01N 37°48' W 122°20'1 2.4
2017-Oct-10 06:30N 37°48' W 122°19'1 1.7
2017-Oct-10 06:00N 37°48' W 122°17'0 0.9
2017-Oct-10 05:31N 37°48' W 122°18'2 4.4
2017-Oct-10 05:00N 37°48' W 122°21'2 4.8
2017-Oct-10 04:30N 37°48' W 122°24'0 0.4
2017-Oct-10 04:00N 37°48' W 122°24'2 4.3
2017-Oct-10 03:30N 37°50' W 122°24'611.0
2017-Oct-10 03:00N 37°56' W 122°25'611.3
2017-Oct-10 02:29N 38°01' W 122°23'611.4
2017-Oct-10 02:00N 38°03' W 122°16'6 2.6
2017-Oct-09 23:44N 38°02' W 122°09'1 0.5
2017-Oct-09 22:13N 38°02' W 122°08'1 3.9
2017-Oct-09 22:00N 38°02' W 122°09'3 4.9
2017-Oct-09 21:29N 38°03' W 122°12'4 8.8
2017-Oct-09 21:00N 38°03' W 122°17'5 9.7
2017-Oct-09 20:30N 38°01' W 122°23'611.8
2017-Oct-09 20:00N 37°56' W 122°25'2 5.0
2017-Oct-09 19:30N 37°55' W 122°22'0 0.6
2017-Oct-09 18:51N 37°55' W 122°22'1 2.4
2017-Oct-09 18:30N 37°54' W 122°22'3 5.4
2017-Oct-09 18:00N 37°55' W 122°25'3 6.5
2017-Oct-09 17:30N 37°52' W 122°24'4 5.5
2017-Oct-09 16:52N 37°48' W 122°24'0 0.0
2017-Oct-09 16:28N 37°48' W 122°24'0 0.0
2017-Oct-09 15:58N 37°48' W 122°24'0 0.0
2017-Oct-09 15:28N 37°48' W 122°24'0 0.0
2017-Oct-09 14:58N 37°48' W 122°24'0 0.0
2017-Oct-09 14:28N 37°48' W 122°24'0 0.0
2017-Oct-09 13:53N 37°48' W 122°24'0 0.8
2017-Oct-09 13:31N 37°48' W 122°24'2 3.3
2017-Oct-09 12:58N 37°49' W 122°26'2 3.7
2017-Oct-09 12:28N 37°48' W 122°24'0 0.0
2017-Oct-09 11:58N 37°48' W 122°24'0 0.0
2017-Oct-09 11:28N 37°48' W 122°24'0 0.0
2017-Oct-09 10:58N 37°48' W 122°24'0 0.0
2017-Oct-09 10:28N 37°48' W 122°24'0 0.0
2017-Oct-09 09:58N 37°48' W 122°24'0 0.0
2017-Oct-09 09:28N 37°48' W 122°24'0 0.0
2017-Oct-09 08:58N 37°48' W 122°24'0 0.0
2017-Oct-09 08:28N 37°48' W 122°24'0 0.0
2017-Oct-09 07:58N 37°48' W 122°24'0 0.0
2017-Oct-09 07:28N 37°48' W 122°24'0 0.0
2017-Oct-09 06:58N 37°48' W 122°24'0 0.0
2017-Oct-09 06:28N 37°48' W 122°24'0 0.0
2017-Oct-09 05:58N 37°48' W 122°24'0 0.0
2017-Oct-09 05:28N 37°48' W 122°24'0 0.0
2017-Oct-09 04:55N 37°48' W 122°24'0 0.0
2017-Oct-09 04:25N 37°48' W 122°24'0 0.0
2017-Oct-09 03:58N 37°48' W 122°24'0 0.0
2017-Oct-09 03:22N 37°48' W 122°24'0 0.0
2017-Oct-09 02:58N 37°48' W 122°24'0 0.0
2017-Oct-09 02:28N 37°48' W 122°24'0 0.0
2017-Oct-09 01:58N 37°48' W 122°24'0 0.0
2017-Oct-09 01:28N 37°48' W 122°24'0 0.0
2017-Oct-09 00:58N 37°48' W 122°24'0 0.1
2017-Oct-09 00:31N 37°48' W 122°24'3 5.3
2017-Oct-08 23:59N 37°48' W 122°20'0 0.6
2017-Oct-08 23:30N 37°49' W 122°20'1 1.6
2017-Oct-08 23:00N 37°48' W 122°21'1 1.5
2017-Oct-08 22:31N 37°48' W 122°22'1 2.5
2017-Oct-08 22:01N 37°48' W 122°20'0 0.4
2017-Oct-08 21:28N 37°48' W 122°21'1 1.4
2017-Oct-08 21:00N 37°48' W 122°21'2 3.8
2017-Oct-08 20:30N 37°48' W 122°24'0 0.0
2017-Oct-08 20:00N 37°48' W 122°24'0 0.0
2017-Oct-08 19:30N 37°48' W 122°24'0 0.0
2017-Oct-08 19:00N 37°48' W 122°24'0 0.0
2017-Oct-08 18:30N 37°48' W 122°24'0 0.0
2017-Oct-08 18:00N 37°48' W 122°24'0 0.0
2017-Oct-08 17:30N 37°48' W 122°24'0 0.0
2017-Oct-08 17:00N 37°48' W 122°24'0 0.0
2017-Oct-08 16:30N 37°48' W 122°24'  

Dump ship's entire track history